Knickerbocker, TX (76939)

15:17 CDT le 22 septembre 2014 (GMT -0500)
Dove Creek | Change Station
CLOSE
Current Station
Stations météorologiques personnelles
Location: San Angelo, TX
Altitude: 2185 ft
Stations météo à proximité

Alt. 2185 ft 31.22 °N, 100.72 °W | Updated 1 second ago

Ciel dégagé
Ciel dégagé
86.4 ° F
Paraît 85 ° F
N
6.7
Vent Variable Vent de ESE
Gusts 9.8 mph

Aujourd'hui
Haut(e) -- | Bas -- ° F
--% Risque de précip.
Hier
Haut(e) -- | Bas -- ° F
Precip. -- pouce
7:30 AM 7:39 PM
Lune descendante, 2% visible
Pression 30.09 pouce
Visibilité 10.0 Miles terrestres
Nuages Ciel dégagé
indice de chaleur 85 ° F
Point de rosée 54 ° F
Humidité 33%
Précipitations 0.00 pouce
Profondeur de la couche neigeuse Non disponible.
UV 8 sur 12
Pollen 9.40 sur 12
Qualité de l'air Non disponible.
Flu Activity Non disponible.
METAR KSJT 221951Z 08011KT 10SM CLR 32/15 A3016 RMK AO2 SLP187 T03170150

More Conditions Fewer Conditions

Pression 30.09 pouce
Visibilité 10.0 Miles terrestres
Nuages Ciel dégagé
indice de chaleur 85 ° F
Point de rosée 54 ° F
Humidité 33%
Précipitations 0.00 pouce
Profondeur de la couche neigeuse Non disponible.
UV 8 sur 12
Pollen 9.40 sur 12
Qualité de l'air Non disponible.
Flu Activity Non disponible.
METAR KSJT 221951Z 08011KT 10SM CLR 32/15 A3016 RMK AO2 SLP187 T03170150

More Conditions Fewer Conditions

10-Day Weather Forecast

Almanac

Astronomie

Sep. 22, 2014 Lever Coucher
Temps réel 07:30 CDT 19:39 CDT
Crépuscule civil 07:06 CDT 20:03 CDT
Crépuscule nautique 06:38 CDT 20:31 CDT
Crépuscule astronomique 06:09 CDT 20:59 CDT
Lune 06:05 CDT 18:45 CDT
Durée de lumière visible 12h 56m
Longueur du jour
12h 08m
Tomorrow will be 1m 54s shorter.
Lune descendante, 2% of the Moon is Illuminated
Aujourd'hui
Lune descendante
Sep 24
Nouveau
Oct 1
Premier quartier
Oct 8
Pleine lune
Oct 15
Dernier quartier

Extrêmes aujourd'hui

State Highs State Lows

Community

WunderPhotos

Upload Photos

1,755,519 Photos téléchargées !

WunderBlogs® & News

Nearby

Épaisseur de neige

Station Depth Altitude
Pas de nouvelles chutes de neige

Activité sismique

Ville Distance Mag. Time & Date
No recent earthquake activity has been reported nearby.
Minimum magnitude displayed is 2.5.

Températures des eaux côtières

Lieu Température
Aucun rapport de station

Stations météo à proximité